Time;durP1;ratioP1;P1;durP2;ratioP2;P2;SDS_P1;SDS_P2;PMS_P1;PMS_P2;Temp;Humidity;BMP_temperature;BMP_pressure;BME280_temperature;BME280_humidity;BME280_pressure;Samples;Min_cycle;Max_cycle;Signal;HPM_P1;HPM_P2
2022/05/23 00:00:11;;;;;;;;;6.00;6.00;;;;;22.10;79.77;100189.81;5058947;28;45459;-78
2022/05/23 00:02:36;;;;;;;;;6.00;5.00;;;;;22.10;79.84;100203.88;5079435;28;45335;-78
2022/05/23 00:05:03;;;;;;;;;7.00;5.75;;;;;22.08;79.77;100207.44;5095100;28;44905;-80
2022/05/23 00:07:32;;;;;;;;;8.25;8.25;;;;;22.08;80.50;100217.97;5096237;28;45318;-83
2022/05/23 00:09:59;;;;;;;;;6.00;6.00;;;;;22.05;80.26;100196.91;5082835;28;45230;-82
2022/05/23 00:12:25;;;;;;;;;8.00;7.50;;;;;22.07;80.50;100211.81;5063860;28;45267;-78
2022/05/23 00:14:51;;;;;;;;;5.50;4.50;;;;;22.07;81.17;100221.50;5079058;28;45331;-77
2022/05/23 00:17:19;;;;;;;;;6.00;6.00;;;;;22.05;81.64;100221.50;5078475;28;46217;-78
2022/05/23 00:19:45;;;;;;;;;4.75;4.75;;;;;22.04;81.51;100211.84;5078546;28;45778;-79
2022/05/23 00:22:12;;;;;;;;;6.50;5.50;;;;;22.04;81.29;100203.94;5079003;28;45429;-79
2022/05/23 00:24:38;;;;;;;;;6.25;4.25;;;;;22.06;81.46;100203.94;5079204;27;45533;-78
2022/05/23 00:27:05;;;;;;;;;8.00;8.00;;;;;22.04;81.57;100193.38;5078505;28;45307;-79
2022/05/23 00:29:31;;;;;;;;;5.00;5.00;;;;;22.01;81.08;100190.81;5078319;28;45692;-78
2022/05/23 00:37:25;;;;;;;;;8.25;5.00;;;;;21.98;81.45;100171.50;5078863;28;45709;-82
2022/05/23 00:39:50;;;;;;;;;6.00;5.00;;;;;22.01;81.07;100171.47;5078274;27;45292;-82
2022/05/23 00:45:05;;;;;;;;;7.00;5.75;;;;;22.00;81.34;100136.34;5078645;28;45299;-82
2022/05/23 00:47:34;;;;;;;;;4.25;4.25;;;;;21.99;81.19;100150.41;5078083;28;45599;-82
2022/05/23 00:49:59;;;;;;;;;4.75;4.75;;;;;21.96;81.09;100150.44;5078251;27;45621;-82
2022/05/23 00:52:32;;;;;;;;;7.25;6.00;;;;;21.98;81.90;100142.50;5078281;28;45218;-82
2022/05/23 00:55:02;;;;;;;;;4.50;4.50;;;;;21.94;81.08;100132.03;5078542;28;45320;-82
2022/05/23 00:57:33;;;;;;;;;5.75;4.25;;;;;21.98;81.48;100135.50;5077935;28;46141;-81
2022/05/23 01:00:01;;;;;;;;;5.50;5.00;;;;;21.99;81.55;100131.06;5078330;28;45374;-79
2022/05/23 01:02:30;;;;;;;;;3.25;3.25;;;;;22.00;81.19;100120.53;5079668;28;45321;-79
2022/05/23 01:04:55;;;;;;;;;4.25;4.25;;;;;22.01;81.24;100117.00;5078293;28;45375;-78
2022/05/23 01:07:21;;;;;;;;;5.00;3.50;;;;;22.01;80.99;100121.38;5077722;28;46534;-81
2022/05/23 01:09:49;;;;;;;;;7.75;5.00;;;;;22.01;81.31;100102.94;5077553;28;45323;-79
2022/05/23 01:12:14;;;;;;;;;5.00;4.00;;;;;22.02;80.63;100112.59;5060293;28;45299;-80
2022/05/23 01:14:56;;;;;;;;;4.00;4.00;;;;;22.01;81.56;100111.72;5078199;27;45229;-81
2022/05/23 01:17:24;;;;;;;;;4.00;3.00;;;;;21.97;81.61;100085.44;5077648;28;46437;-79
2022/05/23 01:19:50;;;;;;;;;3.00;3.00;;;;;21.99;81.43;100083.63;5077446;28;45288;-79
2022/05/23 01:22:19;;;;;;;;;4.00;4.00;;;;;21.98;81.05;100069.59;5076734;28;45676;-78
2022/05/23 01:25:18;;;;;;;;;3.50;3.50;;;;;21.97;81.04;100069.63;5078928;28;45289;-77
2022/05/23 01:27:46;;;;;;;;;5.25;5.25;;;;;21.94;82.03;100063.50;5060117;28;45271;-78
2022/05/23 01:30:12;;;;;;;;;4.00;3.00;;;;;21.91;81.87;100058.25;5077927;28;45720;-78
2022/05/23 01:32:38;;;;;;;;;2.50;2.50;;;;;21.90;82.59;100045.97;5077678;27;45289;-77
2022/05/23 01:35:08;;;;;;;;;5.00;4.00;;;;;21.89;82.20;100043.38;5077718;28;45640;-78
2022/05/23 01:37:34;;;;;;;;;4.25;3.50;;;;;21.90;82.19;100039.84;5077277;28;45420;-77
2022/05/23 01:39:59;;;;;;;;;4.00;4.00;;;;;21.89;82.61;100035.47;5077315;28;45415;-82
2022/05/23 01:42:25;;;;;;;;;4.25;4.25;;;;;21.84;82.68;100025.00;5077487;28;45318;-83
2022/05/23 01:44:51;;;;;;;;;3.50;3.50;;;;;21.80;82.87;100018.91;5077632;27;45424;-83
2022/05/23 01:47:19;;;;;;;;;4.25;4.00;;;;;21.77;83.51;100012.78;5077426;28;45492;-83
2022/05/23 01:49:44;;;;;;;;;5.00;4.00;;;;;21.73;83.33;100001.41;5078230;28;45276;-83
2022/05/23 01:52:10;;;;;;;;;5.75;5.00;;;;;21.69;83.70;99997.09;5083561;28;45303;-82
2022/05/23 01:54:37;;;;;;;;;4.00;4.00;;;;;21.69;84.79;99988.31;5082063;27;45333;-82
2022/05/23 01:57:05;;;;;;;;;4.25;4.25;;;;;21.65;84.46;99988.34;5078866;28;46248;-83
2022/05/23 02:02:16;;;;;;;;;6.50;5.50;;;;;21.59;84.03;99977.06;5077347;28;45414;-82
2022/05/23 02:04:42;;;;;;;;;5.75;5.75;;;;;21.58;84.84;99976.13;5058894;28;45547;-81
2022/05/23 02:07:08;;;;;;;;;8.00;7.50;;;;;21.56;84.74;99983.19;5076806;28;45347;-82
2022/05/23 02:09:34;;;;;;;;;5.25;5.00;;;;;21.55;84.48;99985.84;5076718;27;45444;-79
2022/05/23 02:12:01;;;;;;;;;5.50;5.00;;;;;21.53;84.88;99975.34;5076899;28;45418;-83
2022/05/23 02:14:27;;;;;;;;;7.25;7.00;;;;;21.46;85.46;99971.91;5077040;28;45457;-78
2022/05/23 02:16:53;;;;;;;;;6.25;6.25;;;;;21.46;84.98;99979.81;5076875;28;46179;-79
2022/05/23 02:19:19;;;;;;;;;6.25;6.25;;;;;21.46;85.08;99979.81;5079034;27;45283;-77
2022/05/23 02:21:44;;;;;;;;;6.75;5.75;;;;;21.45;85.73;99985.09;5079296;27;45423;-79
2022/05/23 02:24:10;;;;;;;;;11.00;8.00;;;;;21.45;85.34;99993.00;5077374;27;45547;-79
2022/05/23 02:26:36;;;;;;;;;7.75;7.25;;;;;21.43;85.26;99989.53;5076438;28;46013;-79
2022/05/23 02:29:03;;;;;;;;;7.75;7.00;;;;;21.41;85.92;99999.22;5076472;28;45332;-78
2022/05/23 02:31:30;;;;;;;;;7.25;6.25;;;;;21.41;86.01;100005.34;5058498;28;45382;-79
2022/05/23 02:33:56;;;;;;;;;9.00;7.50;;;;;21.37;85.80;100010.66;5078510;27;45546;-78
2022/05/23 02:36:21;;;;;;;;;5.25;5.25;;;;;21.37;87.01;99998.38;5080106;28;45341;-77
2022/05/23 02:38:47;;;;;;;;;6.75;4.75;;;;;21.38;86.08;100000.09;5080354;28;45345;-80
2022/05/23 02:41:12;;;;;;;;;8.50;7.50;;;;;21.37;86.68;99993.13;5080248;27;45319;-78
2022/05/23 02:43:38;;;;;;;;;9.00;6.75;;;;;21.37;86.31;99986.97;5080320;27;45540;-78
2022/05/23 02:46:04;;;;;;;;;7.50;7.00;;;;;21.34;87.00;99987.88;5080442;27;45938;-78
2022/05/23 02:48:29;;;;;;;;;10.50;8.00;;;;;21.34;87.32;99985.25;5080566;28;45379;-78
2022/05/23 02:50:55;;;;;;;;;12.50;8.00;;;;;21.34;86.61;99996.63;5080855;28;45772;-79
2022/05/23 02:53:21;;;;;;;;;7.00;6.75;;;;;21.31;87.64;99998.44;5080842;28;45589;-77
2022/05/23 02:55:46;;;;;;;;;7.25;6.00;;;;;21.31;87.80;100011.59;5080338;28;45461;-77
2022/05/23 02:58:12;;;;;;;;;7.00;7.00;;;;;21.26;87.13;100000.28;5079829;28;45406;-77
2022/05/23 03:00:38;;;;;;;;;8.00;8.00;;;;;21.29;87.69;100000.22;5080173;28;45235;-78
2022/05/23 03:03:06;;;;;;;;;7.25;7.25;;;;;21.27;87.84;100007.28;5080332;27;45442;-79
2022/05/23 03:05:37;;;;;;;;;8.50;8.50;;;;;21.26;88.48;100000.28;5079662;28;45302;-78
2022/05/23 03:08:03;;;;;;;;;7.75;7.75;;;;;21.25;88.19;99996.75;5079728;28;45379;-79
2022/05/23 03:10:29;;;;;;;;;10.00;7.75;;;;;21.24;88.46;100000.28;5079590;28;45432;-78
2022/05/23 03:12:55;;;;;;;;;8.00;8.00;;;;;21.27;87.73;100013.41;5080168;27;45335;-79
2022/05/23 03:15:21;;;;;;;;;6.75;6.75;;;;;21.28;88.04;99998.47;5079825;28;45433;-77
2022/05/23 03:17:47;;;;;;;;;10.00;10.00;;;;;21.28;87.12;100009.00;5079986;28;45347;-81
2022/05/23 03:20:14;;;;;;;;;8.75;7.25;;;;;21.27;88.16;100002.03;5079618;28;45293;-82
2022/05/23 03:28:08;;;;;;;;;8.50;7.00;;;;;21.30;89.24;100004.59;5079402;28;45265;-83
2022/05/23 03:30:35;;;;;;;;;8.75;7.75;;;;;21.29;88.55;99993.22;5079461;28;45200;-82
2022/05/23 03:33:01;;;;;;;;;9.25;8.50;;;;;21.29;89.00;99964.25;5079756;28;45610;-82
2022/05/23 03:35:29;;;;;;;;;10.25;7.00;;;;;21.27;89.30;99942.34;5080227;27;45266;-82
2022/05/23 03:37:55;;;;;;;;;8.50;8.00;;;;;21.26;88.92;99930.06;5090620;27;45353;-81
2022/05/23 03:40:21;;;;;;;;;6.75;6.75;;;;;21.25;89.35;99917.78;5087346;28;45299;-82
2022/05/23 03:42:47;;;;;;;;;10.75;8.75;;;;;21.26;88.75;99943.22;5080358;27;45541;-82
2022/05/23 03:45:13;;;;;;;;;11.00;10.00;;;;;21.22;88.83;99941.50;5078540;28;46581;-81
2022/05/23 03:47:39;;;;;;;;;8.00;7.00;;;;;21.19;89.41;99960.84;5079048;28;45302;-83
2022/05/23 03:50:05;;;;;;;;;8.75;7.75;;;;;21.16;90.29;99958.28;5078226;28;45541;-82
2022/05/23 03:52:32;;;;;;;;;7.00;7.00;;;;;21.15;90.04;99953.00;5079183;28;45304;-82
2022/05/23 03:54:58;;;;;;;;;7.50;7.50;;;;;21.11;90.90;99932.91;5081464;27;46080;-83
2022/05/23 03:57:24;;;;;;;;;10.00;10.00;;;;;21.09;90.91;99911.00;5081926;27;45326;-82
2022/05/23 03:59:52;;;;;;;;;9.50;7.75;;;;;21.07;90.72;99916.25;5081234;28;45569;-83
2022/05/23 04:02:20;;;;;;;;;8.75;8.50;;;;;21.07;91.07;99936.47;5081819;28;45224;-82
2022/05/23 04:04:47;;;;;;;;;9.00;9.00;;;;;21.05;91.69;99944.38;5082081;28;45330;-82
2022/05/23 04:07:13;;;;;;;;;12.75;9.75;;;;;21.03;91.95;99943.53;5081355;28;45281;-81
2022/05/23 04:09:40;;;;;;;;;10.25;9.00;;;;;21.00;92.08;99941.78;5078416;27;45450;-83
2022/05/23 04:12:06;;;;;;;;;10.25;10.25;;;;;20.99;92.07;99915.50;5079051;28;45378;-81
2022/05/23 04:14:32;;;;;;;;;11.00;10.00;;;;;20.98;91.95;99924.28;5078433;28;45485;-83
2022/05/23 04:16:58;;;;;;;;;11.25;9.50;;;;;20.94;92.36;99917.31;5078585;28;45349;-81
2022/05/23 04:19:25;;;;;;;;;11.75;10.75;;;;;20.93;93.21;99905.91;5078962;28;45354;-80
2022/05/23 04:21:52;;;;;;;;;10.50;10.25;;;;;20.93;93.21;99905.06;5078973;27;45569;-81
2022/05/23 04:24:19;;;;;;;;;12.00;10.25;;;;;20.93;92.79;99894.53;5078153;28;45333;-82
2022/05/23 04:26:52;;;;;;;;;15.50;12.75;;;;;20.93;93.08;99884.88;5078353;28;45808;-82
2022/05/23 04:29:18;;;;;;;;;18.75;17.00;;;;;20.96;93.29;99876.06;5078522;27;45478;-79
2022/05/23 04:31:44;;;;;;;;;19.75;18.50;;;;;20.93;94.32;99853.28;5079979;28;45345;-82
2022/05/23 04:36:54;;;;;;;;;19.50;17.50;;;;;20.95;99.90;99854.16;5078634;28;45373;-83
2022/05/23 04:39:20;;;;;;;;;21.00;16.25;;;;;20.94;100.00;99851.53;5078248;27;45353;-79
2022/05/23 04:41:46;;;;;;;;;16.25;16.25;;;;;20.94;100.00;99869.97;5078249;28;45393;-77
2022/05/23 04:44:12;;;;;;;;;20.75;15.75;;;;;20.92;100.00;99867.34;5077805;28;46148;-77
2022/05/23 04:49:41;;;;;;;;;19.25;16.75;;;;;20.92;100.00;99856.81;5077923;27;45338;-77
2022/05/23 04:49:49;;;;;;;;;19.25;14.50;;;;;20.88;100.00;99857.75;5078143;28;45386;-77
2022/05/23 04:52:19;;;;;;;;;14.00;14.00;;;;;20.84;100.00;99856.91;5078281;28;45340;-77
2022/05/23 04:54:47;;;;;;;;;15.25;14.25;;;;;20.86;100.00;99862.16;5059631;28;47597;-79
2022/05/23 04:57:13;;;;;;;;;13.25;12.25;;;;;20.90;100.00;99881.41;5076726;28;45226;-80
2022/05/23 04:59:39;;;;;;;;;13.75;13.75;;;;;20.92;100.00;99872.59;5060416;28;45428;-81
2022/05/23 05:02:06;;;;;;;;;11.00;11.00;;;;;20.91;100.00;99859.47;5078509;28;45604;-78
2022/05/23 05:04:32;;;;;;;;;11.00;11.00;;;;;20.92;100.00;99863.84;5077716;28;45283;-78
2022/05/23 05:06:59;;;;;;;;;9.75;9.00;;;;;20.93;100.00;99857.69;5077765;28;45259;-77
2022/05/23 05:09:25;;;;;;;;;10.75;9.25;;;;;20.92;100.00;99851.53;5077914;28;45327;-81
2022/05/23 05:11:51;;;;;;;;;11.00;10.00;;;;;20.92;100.00;99837.53;5077544;28;45190;-81
2022/05/23 05:14:17;;;;;;;;;11.00;10.50;;;;;20.90;100.00;99836.69;5076524;28;46080;-82
2022/05/23 05:16:43;;;;;;;;;11.25;9.00;;;;;20.90;100.00;99847.19;5058303;28;45323;-82
2022/05/23 05:19:09;;;;;;;;;14.50;9.50;;;;;20.85;100.00;99842.00;5078334;27;45427;-82
2022/05/23 05:21:35;;;;;;;;;8.25;8.25;;;;;20.86;100.00;99817.44;5078236;28;45490;-83
2022/05/23 05:24:01;;;;;;;;;8.50;8.50;;;;;20.87;100.00;99827.06;5083582;27;46508;-82
2022/05/23 05:26:28;;;;;;;;;9.25;8.00;;;;;20.90;100.00;99819.13;5082241;27;45341;-82
2022/05/23 05:28:54;;;;;;;;;7.00;6.25;;;;;20.92;100.00;99830.50;5059006;27;45410;-82
2022/05/23 05:31:37;;;;;;;;;9.00;8.00;;;;;20.91;100.00;99810.34;5076930;28;45245;-77
2022/05/23 05:34:11;;;;;;;;;8.25;8.25;;;;;20.90;100.00;99795.44;5075258;28;46418;-78
2022/05/23 05:36:42;;;;;;;;;11.50;8.25;;;;;20.92;100.00;99792.81;5078773;28;45445;-77
2022/05/23 05:39:08;;;;;;;;;8.25;7.00;;;;;20.92;100.00;99775.25;5075555;27;45220;-80
2022/05/23 05:41:41;;;;;;;;;8.50;8.50;;;;;20.96;100.00;99769.06;5077297;28;45328;-80
2022/05/23 05:44:14;;;;;;;;;7.00;7.00;;;;;20.96;100.00;99776.94;5077000;28;46403;-80
2022/05/23 05:46:43;;;;;;;;;4.00;4.00;;;;;20.96;100.00;99792.75;5076831;27;45787;-79
2022/05/23 05:49:18;;;;;;;;;5.25;5.00;;;;;21.00;100.00;99823.34;5085764;28;45362;-77
2022/05/23 05:51:45;;;;;;;;;8.75;7.75;;;;;20.97;100.00;99833.94;5078035;28;45313;-79
2022/05/23 05:54:16;;;;;;;;;9.50;9.00;;;;;20.82;100.00;99837.66;5076879;28;46529;-81
2022/05/23 05:56:45;;;;;;;;;9.25;7.00;;;;;20.70;100.00;99829.88;5077977;28;45286;-82
2022/05/23 05:59:11;;;;;;;;;7.75;7.75;;;;;20.63;100.00;99833.47;5076354;27;45442;-82
2022/05/23 06:01:37;;;;;;;;;9.00;8.75;;;;;20.59;100.00;99819.50;5077389;28;45426;-87
2022/05/23 06:04:03;;;;;;;;;9.25;9.25;;;;;20.57;100.00;99813.41;5081426;28;45501;-84
2022/05/23 06:11:59;;;;;;;;;9.50;9.25;;;;;20.71;100.00;99821.97;5077262;28;45521;-80
2022/05/23 06:14:25;;;;;;;;;8.50;8.50;;;;;20.75;100.00;99827.22;5075204;28;46009;-81
2022/05/23 06:16:51;;;;;;;;;8.25;8.25;;;;;20.78;100.00;99830.69;5080832;27;45469;-82
2022/05/23 06:19:17;;;;;;;;;10.25;9.50;;;;;20.81;100.00;99827.13;5079187;28;45383;-80
2022/05/23 06:21:43;;;;;;;;;11.25;8.25;;;;;20.88;100.00;99836.72;5084509;28;45256;-79
2022/05/23 06:24:09;;;;;;;;;7.75;6.25;;;;;20.88;100.00;99829.69;5087634;28;45389;-88
2022/05/23 06:26:36;;;;;;;;;8.25;8.25;;;;;20.92;100.00;99830.50;5078557;28;45336;-80
2022/05/23 06:29:02;;;;;;;;;9.00;7.50;;;;;20.95;100.00;99827.84;5080368;28;45331;-84
2022/05/23 06:31:28;;;;;;;;;11.00;9.50;;;;;21.00;100.00;99815.47;5077004;28;45524;-88
2022/05/23 06:33:54;;;;;;;;;7.75;7.50;;;;;21.11;100.00;99803.94;5055768;28;47717;-85
2022/05/23 06:36:20;;;;;;;;;10.00;8.25;;;;;21.13;100.00;99804.75;5072269;28;45786;-88
2022/05/23 06:38:47;;;;;;;;;6.50;6.00;;;;;21.15;100.00;99797.72;5075580;28;45439;-79
2022/05/23 06:41:14;;;;;;;;;8.50;8.25;;;;;21.18;100.00;99806.44;5075100;28;45323;-79
2022/05/23 06:43:41;;;;;;;;;9.75;9.00;;;;;21.18;100.00;99801.16;5075672;27;46165;-81
2022/05/23 06:46:07;;;;;;;;;6.50;6.50;;;;;21.19;100.00;99781.00;5074201;28;45793;-82
2022/05/23 06:48:34;;;;;;;;;9.00;8.25;;;;;21.20;100.00;99764.31;5084151;28;45375;-79
2022/05/23 06:51:00;;;;;;;;;8.75;7.50;;;;;21.29;100.00;99756.25;5077038;28;45541;-81
2022/05/23 06:53:27;;;;;;;;;7.25;6.00;;;;;21.36;100.00;99764.03;5075214;28;46122;-81
2022/05/23 06:55:55;;;;;;;;;9.00;9.00;;;;;21.44;100.00;99770.03;5076271;28;45481;-81
2022/05/23 06:58:21;;;;;;;;;7.00;7.00;;;;;21.47;100.00;99768.25;5075274;28;45532;-80
2022/05/23 07:00:52;;;;;;;;;6.00;6.00;;;;;21.44;100.00;99768.28;5076102;28;45565;-79
2022/05/23 07:03:19;;;;;;;;;5.75;5.75;;;;;21.49;100.00;99752.41;5075362;28;45443;-82
2022/05/23 07:14:00;;;;;;;;;7.00;6.00;;;;;21.59;100.00;99746.13;5081647;28;45420;-84
2022/05/23 07:16:25;;;;;;;;;5.25;5.25;;;;;21.63;100.00;99757.47;5081408;28;45461;-86
2022/05/23 07:18:51;;;;;;;;;6.25;6.25;;;;;21.64;100.00;99764.47;5077628;28;45422;-83
2022/05/23 07:21:17;;;;;;;;;7.00;7.00;;;;;21.68;100.00;99762.66;5079328;27;45414;-81
2022/05/23 07:23:43;;;;;;;;;9.75;8.25;;;;;21.69;100.00;99761.75;5059732;28;47827;-87
2022/05/23 07:26:16;;;;;;;;;6.75;5.50;;;;;21.69;100.00;99767.03;5078536;28;45500;-83
2022/05/23 07:28:45;;;;;;;;;10.25;8.25;;;;;21.68;100.00;99760.91;5074077;28;45512;-81
2022/05/23 07:31:12;;;;;;;;;5.75;4.25;;;;;21.62;100.00;99775.06;5079640;27;45457;-88
2022/05/23 07:33:41;;;;;;;;;8.00;8.00;;;;;21.60;100.00;99768.94;5079145;27;45299;-86
2022/05/23 07:36:09;;;;;;;;;8.00;7.00;;;;;21.57;100.00;99776.84;5083731;27;45674;-90
2022/05/23 07:38:37;;;;;;;;;7.50;6.75;;;;;21.49;100.00;99784.00;5094527;28;45295;-90
2022/05/23 07:41:04;;;;;;;;;7.50;6.50;;;;;21.44;100.00;99783.22;5090326;28;45497;-90
2022/05/23 07:43:35;;;;;;;;;6.00;6.00;;;;;21.42;100.00;99777.13;5085913;28;45232;-91
2022/05/23 07:46:07;;;;;;;;;6.75;5.75;;;;;21.44;100.00;99775.31;5104034;27;45093;-94
2022/05/23 07:48:33;;;;;;;;;8.25;7.00;;;;;21.42;100.00;99779.75;5083778;27;45409;-86
2022/05/23 07:50:59;;;;;;;;;8.50;7.25;;;;;21.39;100.00;99792.97;5078388;28;45708;-86
2022/05/23 08:01:36;;;;;;;;;10.50;8.00;;;;;21.49;100.00;99686.56;5080044;28;45374;-82
2022/05/23 08:04:02;;;;;;;;;6.25;6.25;;;;;21.52;100.00;99670.72;5078445;28;45721;-88
2022/05/23 08:06:28;;;;;;;;;9.50;8.50;;;;;21.58;100.00;99720.66;5077578;27;45334;-85
2022/05/23 08:08:53;;;;;;;;;9.25;8.00;;;;;21.59;100.00;99716.28;5062097;28;45422;-84
2022/05/23 08:11:19;;;;;;;;;6.75;5.75;;;;;21.57;100.00;99718.91;5070185;27;45386;-82
2022/05/23 08:13:48;;;;;;;;;11.50;7.50;;;;;21.52;100.00;99726.03;5075736;27;45428;-93
2022/05/23 08:16:14;;;;;;;;;12.75;9.00;;;;;21.42;100.00;99725.31;5084440;27;45761;-94
2022/05/23 08:18:40;;;;;;;;;6.25;6.00;;;;;21.37;100.00;99721.91;5078950;28;45448;-83
2022/05/23 08:21:06;;;;;;;;;8.00;8.00;;;;;21.37;100.00;99731.56;5080423;28;45482;-84
2022/05/23 08:23:31;;;;;;;;;8.75;8.50;;;;;21.34;100.00;99732.47;5079426;28;45800;-88
2022/05/23 08:25:57;;;;;;;;;9.25;9.25;;;;;21.29;100.00;99729.94;5082197;28;45404;-89
2022/05/23 08:28:22;;;;;;;;;8.25;8.25;;;;;21.29;100.00;99731.69;5077463;27;46119;-86
2022/05/23 08:30:48;;;;;;;;;9.25;9.25;;;;;21.35;100.00;99731.59;5083087;28;45419;-83
2022/05/23 08:33:14;;;;;;;;;12.00;9.50;;;;;21.41;100.00;99744.63;5081451;28;45650;-87
2022/05/23 08:35:39;;;;;;;;;7.50;7.50;;;;;21.47;100.00;99749.81;5078909;28;45330;-87
2022/05/23 08:38:05;;;;;;;;;11.50;9.50;;;;;21.51;100.00;99755.91;5079013;28;45341;-85
2022/05/23 08:40:49;;;;;;;;;9.50;8.00;;;;;21.46;100.00;99768.25;5089340;27;45316;-85
2022/05/23 08:43:26;;;;;;;;;9.75;9.75;;;;;21.30;100.00;99768.53;5082133;27;45430;-85
2022/05/23 08:45:56;;;;;;;;;10.25;8.00;;;;;21.16;100.00;99770.50;5079243;27;45182;-86
2022/05/23 08:48:38;;;;;;;;;10.75;8.50;;;;;21.07;100.00;99758.34;5080130;27;45473;-88
2022/05/23 08:51:21;;;;;;;;;7.50;7.50;;;;;21.02;100.00;99754.94;5083067;27;45424;-90
2022/05/23 08:53:59;;;;;;;;;13.50;11.25;;;;;20.99;100.00;99755.84;5080800;27;45977;-82
2022/05/23 08:56:39;;;;;;;;;8.75;8.25;;;;;20.96;100.00;99768.16;5091439;27;45090;-87
2022/05/23 08:59:18;;;;;;;;;9.25;9.00;;;;;20.92;100.00;99772.59;5087375;28;44821;-88
2022/05/23 09:01:48;;;;;;;;;9.25;8.00;;;;;20.86;100.00;99764.81;5078229;28;45493;-86
2022/05/23 09:04:29;;;;;;;;;9.50;9.50;;;;;20.85;100.00;99761.31;5075055;27;46789;-89
2022/05/23 09:06:56;;;;;;;;;9.75;9.75;;;;;20.93;100.00;99761.19;5084534;28;45574;-84
2022/05/23 09:09:23;;;;;;;;;12.25;12.00;;;;;21.05;100.00;99769.81;5081459;28;45442;-83
2022/05/23 09:11:59;;;;;;;;;9.75;9.75;;;;;21.08;100.00;99767.97;5081648;28;45413;-88
2022/05/23 09:14:24;;;;;;;;;12.75;12.75;;;;;21.13;100.00;99771.44;5082357;27;45461;-83
2022/05/23 09:16:53;;;;;;;;;15.50;13.75;;;;;21.13;100.00;99773.19;5083783;27;45403;-94
2022/05/23 09:19:40;;;;;;;;;11.75;10.25;;;;;21.11;100.00;99775.00;5074843;28;45223;-92
2022/05/23 09:22:30;;;;;;;;;12.25;11.00;;;;;21.05;100.00;99772.44;5072242;28;46765;-82
2022/05/23 09:25:00;;;;;;;;;12.50;12.50;;;;;21.07;100.00;99763.63;5069360;27;46160;-84
2022/05/23 09:28:06;;;;;;;;;12.50;11.00;;;;;21.09;100.00;99758.34;5078040;28;45681;-84
2022/05/23 09:30:35;;;;;;;;;12.75;11.50;;;;;21.15;100.00;99761.75;5036680;28;45580;-83
2022/05/23 09:33:00;;;;;;;;;14.25;11.75;;;;;21.21;100.00;99755.53;5079768;28;46186;-82
2022/05/23 09:35:46;;;;;;;;;16.75;16.50;;;;;21.29;100.00;99751.00;5064780;27;45326;-82
2022/05/23 09:38:12;;;;;;;;;14.00;13.75;;;;;21.40;100.00;99756.06;5076797;27;45344;-83
2022/05/23 09:40:38;;;;;;;;;16.75;16.75;;;;;21.53;100.00;99762.00;5071687;28;45480;-84
2022/05/23 09:49:17;;;;;;;;;15.75;15.25;;;;;21.68;100.00;99750.38;5089653;27;45350;-82
2022/05/23 09:51:59;;;;;;;;;15.00;15.00;;;;;21.74;100.00;99737.06;5081691;27;45338;-83
2022/05/23 09:54:30;;;;;;;;;18.00;17.25;;;;;21.87;100.00;99729.78;5077964;27;45342;-83
2022/05/23 09:57:00;;;;;;;;;18.00;15.25;;;;;21.99;100.00;99731.34;5082217;28;46164;-82
2022/05/23 09:59:36;;;;;;;;;19.75;17.50;;;;;22.14;100.00;99731.94;5078622;28;45410;-79
2022/05/23 10:02:18;;;;;;;;;17.75;16.50;;;;;22.24;100.00;99730.84;5078630;28;45305;-90
2022/05/23 10:04:45;;;;;;;;;18.00;17.00;;;;;22.40;100.00;99747.22;5079372;28;45414;-83
2022/05/23 10:07:47;;;;;;;;;18.25;17.25;;;;;22.34;100.00;99740.31;5072155;28;45476;-84
2022/05/23 10:10:34;;;;;;;;;18.00;17.25;;;;;22.35;100.00;99738.50;5042157;28;45355;-81
2022/05/23 10:13:18;;;;;;;;;17.25;16.50;;;;;22.39;100.00;99735.78;5082204;27;45551;-88
2022/05/23 10:15:50;;;;;;;;;18.50;18.00;;;;;22.34;100.00;99736.78;5088120;27;45612;-83
2022/05/23 10:18:24;;;;;;;;;18.00;16.00;;;;;22.22;100.00;99733.50;5080982;28;46557;-87
2022/05/23 10:20:50;;;;;;;;;20.00;19.00;;;;;22.13;100.00;99735.47;5086076;28;45849;-86
2022/05/23 10:23:23;;;;;;;;;18.25;17.75;;;;;21.98;100.00;99736.63;5084941;28;44934;-86
2022/05/23 10:26:23;;;;;;;;;12.75;10.00;;;;;21.87;100.00;99737.69;5077740;27;45343;-87
2022/05/23 10:29:11;;;;;;;;;21.50;21.00;;;;;21.80;100.00;99742.25;5077202;28;45514;-87
2022/05/23 10:31:43;;;;;;;;;20.00;18.75;;;;;21.71;100.00;99752.91;5077223;28;45391;-86
2022/05/23 10:34:19;;;;;;;;;19.75;16.25;;;;;21.74;100.00;99749.38;5077401;27;45442;-89
2022/05/23 10:36:48;;;;;;;;;18.00;17.50;;;;;21.82;100.00;99743.94;5076910;28;45441;-84
2022/05/23 10:42:31;;;;;;;;;19.25;19.25;;;;;21.89;100.00;99741.16;5080342;28;45216;-87
2022/05/23 10:45:06;;;;;;;;;21.25;19.50;;;;;21.91;100.00;99736.75;5084041;27;45304;-86
2022/05/23 10:47:51;;;;;;;;;17.25;16.50;;;;;21.92;100.00;99737.63;5082275;27;45420;-86
2022/05/23 10:50:37;;;;;;;;;21.25;18.25;;;;;21.89;100.00;99740.31;5059420;28;48200;-87
2022/05/23 10:53:14;;;;;;;;;16.25;16.00;;;;;21.80;100.00;99755.41;5078051;28;45676;-88
2022/05/23 10:56:26;;;;;;;;;15.75;15.75;;;;;21.59;100.00;99740.84;5080028;27;45339;-86
2022/05/23 10:59:02;;;;;;;;;18.50;16.00;;;;;21.47;100.00;99735.75;5080557;27;45297;-85
2022/05/23 11:01:55;;;;;;;;;16.50;16.50;;;;;21.41;100.00;99743.78;5079975;28;45222;-86
2022/05/23 11:04:26;;;;;;;;;21.00;19.25;;;;;21.34;100.00;99746.50;5080368;27;45826;-87
2022/05/23 11:06:58;;;;;;;;;17.50;16.50;;;;;21.28;100.00;99741.34;5081011;28;45375;-85
2022/05/23 11:10:01;;;;;;;;;20.50;18.50;;;;;21.16;100.00;99742.44;5083604;28;45164;-87
2022/05/23 11:12:43;;;;;;;;;17.75;17.75;;;;;21.04;100.00;99742.63;5087258;27;46047;-96
2022/05/23 11:15:21;;;;;;;;;17.50;16.75;;;;;20.97;100.00;99754.13;5090868;27;45352;-96
2022/05/23 11:17:47;;;;;;;;;16.00;14.50;;;;;20.93;100.00;99758.56;5091662;27;45200;-85
2022/05/23 11:20:35;;;;;;;;;16.50;16.50;;;;;20.85;100.00;99755.19;5087533;27;45387;-94
2022/05/23 11:23:30;;;;;;;;;16.00;15.00;;;;;20.72;100.00;99757.09;5078204;28;46545;-92
2022/05/23 11:26:06;;;;;;;;;15.00;14.50;;;;;20.66;100.00;99760.69;5092737;27;45371;-93
2022/05/23 11:34:46;;;;;;;;;16.00;16.00;;;;;20.60;100.00;99754.63;5057128;28;45190;-88
2022/05/23 11:39:51;;;;;;;;;17.00;16.25;;;;;20.60;100.00;99758.13;5093108;27;45370;-89
2022/05/23 11:42:42;;;;;;;;;18.25;15.75;;;;;20.59;100.00;99766.91;5093181;27;45406;-79
2022/05/23 11:47:54;;;;;;;;;24.25;21.25;;;;;20.51;100.00;99768.75;5079779;28;45226;-84
2022/05/23 11:50:30;;;;;;;;;19.50;18.50;;;;;20.48;100.00;99767.06;5078937;28;45469;-86
2022/05/23 11:53:18;;;;;;;;;19.25;18.00;;;;;20.46;100.00;99768.81;5079012;28;45508;-83
2022/05/23 11:55:55;;;;;;;;;19.75;19.75;;;;;20.45;100.00;99777.59;5065538;28;46044;-86
2022/05/23 11:58:39;;;;;;;;;21.50;20.75;;;;;20.34;100.00;99785.63;5073484;27;45756;-86
2022/05/23 12:01:10;;;;;;;;;22.00;19.25;;;;;20.16;100.00;99780.56;5081911;27;45405;-86
2022/05/23 12:03:47;;;;;;;;;21.75;19.25;;;;;19.95;100.00;99786.06;5084356;28;45327;-88
2022/05/23 12:06:24;;;;;;;;;20.75;19.75;;;;;19.84;100.00;99780.00;5086235;28;45570;-87
2022/05/23 12:09:01;;;;;;;;;22.75;20.25;;;;;19.74;100.00;99788.88;5085469;27;45345;-85
2022/05/23 12:11:29;;;;;;;;;28.00;23.50;;;;;19.66;100.00;99799.44;5079810;27;45353;-84
2022/05/23 12:14:12;;;;;;;;;17.25;16.75;;;;;19.62;100.00;99795.97;5063886;28;45718;-84
2022/05/23 12:16:42;;;;;;;;;16.50;15.50;;;;;19.70;100.00;99798.53;5083946;28;46532;-84
2022/05/23 12:19:35;;;;;;;;;20.50;19.25;;;;;19.75;100.00;99803.75;5075945;28;45506;-85
2022/05/23 12:22:35;;;;;;;;;23.50;20.00;;;;;19.70;100.00;99800.28;5075403;28;45385;-80
2022/05/23 12:25:17;;;;;;;;;21.00;18.00;;;;;19.72;100.00;99799.38;5083101;27;46437;-84
2022/05/23 12:27:43;;;;;;;;;20.25;17.25;;;;;19.82;100.00;99807.16;5079529;28;45461;-83
2022/05/23 12:30:20;;;;;;;;;19.25;19.25;;;;;19.86;100.00;99808.91;5080738;28;45397;-84
2022/05/23 12:33:00;;;;;;;;;22.50;17.75;;;;;19.85;100.00;99815.00;5085361;28;46119;-81
2022/05/23 12:36:07;;;;;;;;;16.50;12.25;;;;;19.78;100.00;99817.72;5085290;27;45351;-89